createdAt,value
2022-09-13T00:01:04.591Z,96119.81
2022-09-13T00:03:31.441Z,96120.22
2022-09-13T00:05:58.459Z,96117.53
2022-09-13T00:08:25.088Z,96118.72
2022-09-13T00:10:51.752Z,96113.94
2022-09-13T00:13:18.451Z,96112.28
2022-09-13T00:15:47.627Z,96107.50
2022-09-13T00:18:15.623Z,96105.38
2022-09-13T00:20:42.313Z,96105.53
2022-09-13T00:23:10.203Z,96101.22
2022-09-13T00:25:37.174Z,96100.28
2022-09-13T00:28:05.264Z,96105.38
2022-09-13T00:30:32.404Z,96093.22
2022-09-13T00:32:59.189Z,96097.72
2022-09-13T00:35:25.858Z,96095.88
2022-09-13T00:37:52.509Z,96089.88
2022-09-13T00:40:19.255Z,96100.94
2022-09-13T00:42:45.914Z,96094.13
2022-09-13T00:45:12.549Z,96088.31
2022-09-13T00:47:48.632Z,96085.19
2022-09-13T00:50:43.476Z,96084.53
2022-09-13T00:53:13.615Z,96080.22
2022-09-13T00:55:40.361Z,96081.25
2022-09-13T00:58:12.655Z,96090.28
2022-09-13T01:00:41.110Z,96080.78
2022-09-13T01:03:12.465Z,96078.47
2022-09-13T01:05:47.860Z,96061.97
2022-09-13T01:08:22.503Z,96078.75
2022-09-13T01:10:54.023Z,96075.81
2022-09-13T01:13:26.503Z,96070.00
2022-09-13T01:15:53.281Z,96074.88
2022-09-13T01:18:20.510Z,96069.53
2022-09-13T01:21:02.349Z,96064.38
2022-09-13T01:23:59.754Z,96065.47
2022-09-13T01:27:03.378Z,96063.53
2022-09-13T01:30:04.085Z,96056.91
2022-09-13T01:33:01.917Z,96059.56
2022-09-13T01:35:56.220Z,96060.38
2022-09-13T01:38:26.801Z,96054.56
2022-09-13T01:41:15.229Z,96050.25
2022-09-13T01:43:55.981Z,96042.41
2022-09-13T01:46:59.515Z,96048.97
2022-09-13T01:49:39.271Z,96043.69
2022-09-13T01:52:22.159Z,96042.38
2022-09-13T01:55:03.237Z,96033.75
2022-09-13T01:57:35.800Z,96039.44
2022-09-13T02:00:12.191Z,96029.13
2022-09-13T02:02:57.515Z,96024.81
2022-09-13T02:05:42.978Z,96020.91
2022-09-13T02:08:32.709Z,96019.63
2022-09-13T02:11:10.008Z,96025.81
2022-09-13T02:13:41.655Z,96014.66
2022-09-13T02:16:19.741Z,96022.03
2022-09-13T02:18:52.393Z,96026.53
2022-09-13T02:21:28.100Z,96019.06
2022-09-13T02:24:07.592Z,96018.41
2022-09-13T02:26:38.418Z,96029.63
2022-09-13T02:29:11.905Z,96028.38
2022-09-13T02:31:45.200Z,96025.59
2022-09-13T02:34:18.864Z,96024.78
2022-09-13T02:36:49.166Z,96030.84
2022-09-13T02:39:18.283Z,96018.72
2022-09-13T02:41:45.310Z,96016.56
2022-09-13T02:44:14.397Z,96015.25
2022-09-13T02:47:12.126Z,96021.75
2022-09-13T02:49:51.691Z,96019.75
2022-09-13T02:52:41.679Z,96005.81
2022-09-13T02:55:08.787Z,96000.34
2022-09-13T02:57:42.704Z,96006.31
2022-09-13T03:00:10.306Z,96005.78
2022-09-13T03:02:39.717Z,96002.59
2022-09-13T03:05:06.512Z,95998.94
2022-09-13T03:07:33.165Z,95996.25
2022-09-13T03:10:06.000Z,96003.22
2022-09-13T03:12:41.472Z,95997.25
2022-09-13T03:15:08.370Z,96003.59
2022-09-13T03:18:09.617Z,96004.78
2022-09-13T03:21:01.253Z,96005.94
2022-09-13T03:23:30.587Z,96000.44
2022-09-13T03:26:18.281Z,96002.94
2022-09-13T03:28:50.941Z,96002.28
2022-09-13T03:31:28.194Z,95990.13
2022-09-13T03:34:12.947Z,95995.22
2022-09-13T03:36:58.285Z,95997.94
2022-09-13T03:39:42.776Z,96002.81
2022-09-13T03:42:30.726Z,95996.00
2022-09-13T03:44:59.483Z,95996.13
2022-09-13T03:47:29.014Z,96006.56
2022-09-13T03:49:57.296Z,96006.56
2022-09-13T03:52:24.691Z,96001.06
2022-09-13T03:54:53.173Z,95996.72
2022-09-13T03:57:22.093Z,96003.91
2022-09-13T03:59:57.416Z,96003.63
2022-09-13T04:02:25.986Z,95997.00
2022-09-13T04:04:53.098Z,95999.34
2022-09-13T04:07:22.517Z,95996.22
2022-09-13T04:09:49.641Z,95993.38
2022-09-13T04:12:17.596Z,95999.03
2022-09-13T04:14:44.998Z,96007.84
2022-09-13T04:17:12.423Z,96000.03
2022-09-13T04:19:39.182Z,95999.03
2022-09-13T04:22:06.383Z,95997.03
2022-09-13T04:24:33.537Z,96001.19
2022-09-13T04:27:01.498Z,95999.25
2022-09-13T04:29:28.998Z,96005.25
2022-09-13T04:31:56.100Z,95994.59
2022-09-13T04:34:23.401Z,95998.75
2022-09-13T04:36:52.321Z,96000.06
2022-09-13T04:39:20.320Z,96004.88
2022-09-13T04:41:48.818Z,95999.22
2022-09-13T04:44:17.250Z,95998.69
2022-09-13T04:46:48.228Z,95994.69
2022-09-13T04:49:16.742Z,95993.53
2022-09-13T04:51:43.871Z,95991.41
2022-09-13T04:54:15.221Z,95995.59
2022-09-13T04:56:42.625Z,95995.59
2022-09-13T04:59:10.902Z,95996.78
2022-09-13T05:01:37.806Z,95996.78
2022-09-13T05:04:05.960Z,96006.09
2022-09-13T05:06:32.613Z,95994.59
2022-09-13T05:08:59.353Z,96001.91
2022-09-13T05:11:28.810Z,95994.75
2022-09-13T05:13:58.480Z,96009.09
2022-09-13T05:16:27.066Z,95999.78
2022-09-13T05:18:54.518Z,95998.44
2022-09-13T05:21:21.905Z,96002.78
2022-09-13T05:23:52.544Z,96001.47
2022-09-13T05:26:19.710Z,96007.94
2022-09-13T05:28:46.585Z,96009.25
2022-09-13T05:31:26.401Z,95999.75
2022-09-13T05:33:56.669Z,96005.41
2022-09-13T05:36:23.591Z,96003.06
2022-09-13T05:39:01.614Z,96002.69
2022-09-13T05:41:36.866Z,96002.03
2022-09-13T05:44:12.023Z,95993.41
2022-09-13T05:46:39.588Z,95989.72
2022-09-13T05:49:06.268Z,95990.59
2022-09-13T05:51:32.927Z,95985.03
2022-09-13T05:53:59.771Z,95980.06
2022-09-13T05:56:29.185Z,95982.56
2022-09-13T05:58:56.166Z,95968.88
2022-09-13T06:01:26.644Z,95969.78
2022-09-13T06:03:55.554Z,95969.06
2022-09-13T06:06:23.420Z,95961.00
2022-09-13T06:08:57.154Z,95961.34
2022-09-13T06:11:25.700Z,95955.88
2022-09-13T06:13:53.333Z,95954.63
2022-09-13T06:16:20.601Z,95963.00
2022-09-13T06:18:47.335Z,95959.47
2022-09-13T06:21:18.201Z,95965.78
2022-09-13T06:23:46.947Z,95964.22
2022-09-13T06:26:16.811Z,95951.06
2022-09-13T06:28:46.923Z,95957.25
2022-09-13T06:31:15.146Z,95956.66
2022-09-13T06:33:43.625Z,95961.22
2022-09-13T06:36:18.395Z,95957.72
2022-09-13T06:38:46.585Z,95954.84
2022-09-13T06:41:18.900Z,95933.34
2022-09-13T06:43:46.265Z,95935.47
2022-09-13T06:46:15.282Z,95926.16
2022-09-13T06:48:43.945Z,95930.66
2022-09-13T06:51:17.003Z,95938.91
2022-09-13T06:53:44.828Z,95928.97
2022-09-13T06:56:17.700Z,95924.63
2022-09-13T06:58:47.114Z,95923.56
2022-09-13T07:01:16.892Z,95926.25
2022-09-13T07:03:52.080Z,95928.47
2022-09-13T07:06:24.776Z,95933.22
2022-09-13T07:08:52.345Z,95931.53
2022-09-13T07:11:21.200Z,95929.25
2022-09-13T07:13:49.594Z,95933.50
2022-09-13T07:16:17.244Z,95936.34
2022-09-13T07:18:43.986Z,95932.28
2022-09-13T07:21:11.521Z,95934.41
2022-09-13T07:23:39.564Z,95930.97
2022-09-13T07:26:07.818Z,95940.16
2022-09-13T07:28:38.880Z,95935.88
2022-09-13T07:31:21.005Z,95941.66
2022-09-13T07:33:53.281Z,95940.31
2022-09-13T07:36:20.082Z,95947.63
2022-09-13T07:38:46.784Z,95954.06
2022-09-13T07:41:15.795Z,95954.00
2022-09-13T07:43:43.239Z,95945.63
2022-09-13T07:46:12.658Z,95951.41
2022-09-13T07:48:41.653Z,95943.97
2022-09-13T07:51:11.930Z,95941.56
2022-09-13T07:53:39.959Z,95939.97
2022-09-13T07:56:06.534Z,95949.84
2022-09-13T07:58:34.978Z,95947.13
2022-09-13T08:01:27.651Z,95943.31
2022-09-13T08:03:59.515Z,95938.06
2022-09-13T08:06:29.037Z,95931.13
2022-09-13T08:08:56.455Z,95923.19
2022-09-13T08:11:47.937Z,95925.88
2022-09-13T08:14:17.363Z,95914.03
2022-09-13T08:16:44.071Z,95907.94
2022-09-13T08:19:14.000Z,95905.09
2022-09-13T08:21:42.049Z,95896.66
2022-09-13T08:24:15.171Z,95904.31
2022-09-13T08:26:41.990Z,95900.38
2022-09-13T08:29:08.803Z,95890.16
2022-09-13T08:31:35.668Z,95886.72
2022-09-13T08:34:02.399Z,95894.25
2022-09-13T08:36:30.117Z,95898.38
2022-09-13T08:38:59.601Z,95897.53
2022-09-13T08:41:32.515Z,95903.97
2022-09-13T08:44:08.269Z,95903.56
2022-09-13T08:46:42.216Z,95900.41
2022-09-13T08:49:16.717Z,95896.94
2022-09-13T08:51:43.304Z,95899.16
2022-09-13T08:54:12.404Z,95900.84
2022-09-13T08:56:42.315Z,95894.69
2022-09-13T08:59:21.123Z,95895.78
2022-09-13T09:02:03.202Z,95896.94
2022-09-13T09:04:45.607Z,95888.56
2022-09-13T09:07:20.426Z,95892.75
2022-09-13T09:10:08.321Z,95900.75
2022-09-13T09:12:41.802Z,95897.59
2022-09-13T09:15:14.044Z,95895.41
2022-09-13T09:17:56.957Z,95894.72
2022-09-13T09:20:28.502Z,95892.91
2022-09-13T09:22:55.768Z,95882.81
2022-09-13T09:25:26.236Z,95877.81
2022-09-13T09:27:54.408Z,95875.53
2022-09-13T09:30:21.495Z,95875.84
2022-09-13T09:33:20.617Z,95866.81
2022-09-13T09:36:07.737Z,95865.91
2022-09-13T09:38:41.539Z,95868.50
2022-09-13T09:41:35.423Z,95864.50
2022-09-13T09:44:16.775Z,95861.22
2022-09-13T09:46:47.885Z,95868.63
2022-09-13T09:49:38.227Z,95863.25
2022-09-13T09:52:07.450Z,95857.63
2022-09-13T09:54:35.385Z,95863.78
2022-09-13T09:57:02.045Z,95855.13
2022-09-13T09:59:33.438Z,95861.25
2022-09-13T10:02:04.956Z,95853.06
2022-09-13T10:04:32.269Z,95857.13
2022-09-13T10:07:24.376Z,95848.09
2022-09-13T10:10:02.547Z,95852.22
2022-09-13T10:12:33.997Z,95853.06
2022-09-13T10:15:21.342Z,95855.53
2022-09-13T10:18:43.351Z,95851.28
2022-09-13T10:21:19.681Z,95852.94
2022-09-13T10:23:48.400Z,95846.13
2022-09-13T10:26:21.374Z,95842.56
2022-09-13T10:29:08.165Z,95837.66
2022-09-13T10:31:38.726Z,95838.16
2022-09-13T10:34:21.079Z,95831.47
2022-09-13T10:37:17.841Z,95833.38
2022-09-13T10:40:17.913Z,95843.75
2022-09-13T10:42:59.262Z,95833.69
2022-09-13T10:45:29.282Z,95826.53
2022-09-13T10:48:03.934Z,95828.84
2022-09-13T10:50:35.942Z,95818.91
2022-09-13T10:53:05.283Z,95829.13
2022-09-13T10:55:44.046Z,95816.34
2022-09-13T10:58:10.688Z,95820.25
2022-09-13T11:01:05.102Z,95818.78
2022-09-13T11:03:44.037Z,95814.94
2022-09-13T11:06:26.264Z,95827.00
2022-09-13T11:09:11.725Z,95821.88
2022-09-13T11:12:00.249Z,95822.06
2022-09-13T11:14:48.654Z,95817.25
2022-09-13T11:17:15.739Z,95816.22
2022-09-13T11:20:07.493Z,95811.06
2022-09-13T11:23:11.907Z,95803.94
2022-09-13T11:25:53.637Z,95803.25
2022-09-13T11:28:26.471Z,95799.72
2022-09-13T11:31:29.836Z,95793.84
2022-09-13T11:34:29.037Z,95789.22
2022-09-13T11:37:17.415Z,95790.88
2022-09-13T11:39:47.142Z,95792.97
2022-09-13T11:42:19.561Z,95787.41
2022-09-13T11:45:14.167Z,95787.41
2022-09-13T11:47:54.596Z,95787.59
2022-09-13T11:50:43.410Z,95787.53
2022-09-13T11:53:15.892Z,95786.69
2022-09-13T11:55:56.313Z,95789.69
2022-09-13T11:58:34.199Z,95787.75
2022-09-13T12:01:05.842Z,95792.28
2022-09-13T12:04:01.392Z,95790.19
2022-09-13T12:06:33.104Z,95790.00
2022-09-13T12:09:22.238Z,95794.78
2022-09-13T12:11:58.398Z,95788.09
2022-09-13T12:14:30.830Z,95787.28
2022-09-13T12:17:06.695Z,95790.88
2022-09-13T12:19:40.478Z,95784.13
2022-09-13T12:22:08.338Z,95775.44
2022-09-13T12:24:50.756Z,95779.69
2022-09-13T12:27:43.087Z,95779.19
2022-09-13T12:30:18.759Z,95778.22
2022-09-13T12:32:48.017Z,95782.72
2022-09-13T12:35:22.238Z,95779.47
2022-09-13T12:37:59.294Z,95775.69
2022-09-13T12:40:44.015Z,95776.16
2022-09-13T12:43:22.418Z,95773.19
2022-09-13T12:46:04.305Z,95775.69
2022-09-13T12:48:40.892Z,95777.56
2022-09-13T12:51:27.787Z,95777.81
2022-09-13T12:54:22.192Z,95778.44
2022-09-13T12:57:28.301Z,95771.00
2022-09-13T13:00:14.707Z,95781.63
2022-09-13T13:02:54.369Z,95775.44
2022-09-13T13:05:27.905Z,95777.84
2022-09-13T13:08:02.231Z,95772.63
2022-09-13T13:10:33.524Z,95769.41
2022-09-13T13:13:23.899Z,95772.88
2022-09-13T13:15:50.535Z,95770.59
2022-09-13T13:18:32.388Z,95768.34
2022-09-13T13:20:58.950Z,95772.13
2022-09-13T13:23:41.277Z,95771.84
2022-09-13T13:26:45.242Z,95780.41
2022-09-13T13:29:23.417Z,95771.97
2022-09-13T13:32:04.009Z,95778.22
2022-09-13T13:34:46.835Z,95767.63
2022-09-13T13:37:18.719Z,95775.44
2022-09-13T13:39:45.573Z,95779.84
2022-09-13T13:42:15.094Z,95780.94
2022-09-13T13:44:42.054Z,95780.38
2022-09-13T13:47:08.633Z,95774.19
2022-09-13T13:49:38.816Z,95779.00
2022-09-13T13:52:15.833Z,95775.72
2022-09-13T13:54:42.486Z,95774.69
2022-09-13T13:57:21.039Z,95766.38
2022-09-13T13:59:51.844Z,95757.81
2022-09-13T14:02:23.244Z,95766.06
2022-09-13T14:05:01.843Z,95757.38
2022-09-13T14:07:34.550Z,95770.41
2022-09-13T14:10:10.617Z,95763.59
2022-09-13T14:12:48.849Z,95758.50
2022-09-13T14:15:33.803Z,95756.50
2022-09-13T14:18:00.322Z,95759.03
2022-09-13T14:20:27.039Z,95752.97
2022-09-13T14:23:12.494Z,95756.75
2022-09-13T14:25:39.416Z,95753.97
2022-09-13T14:28:07.830Z,95745.69
2022-09-13T14:30:38.819Z,95748.09
2022-09-13T14:33:06.379Z,95754.81
2022-09-13T14:35:38.736Z,95753.59
2022-09-13T14:38:19.288Z,95751.22
2022-09-13T14:40:54.664Z,95750.88
2022-09-13T14:43:23.763Z,95748.97
2022-09-13T14:45:53.989Z,95739.06
2022-09-13T14:48:51.729Z,95738.41
2022-09-13T14:51:24.682Z,95740.22
2022-09-13T14:53:59.692Z,95730.53
2022-09-13T14:56:35.043Z,95724.31
2022-09-13T14:59:08.003Z,95727.31
2022-09-13T15:01:36.187Z,95723.97
2022-09-13T15:04:05.372Z,95731.28
2022-09-13T15:06:35.801Z,95730.72
2022-09-13T15:09:11.691Z,95725.63
2022-09-13T15:11:56.055Z,95731.38
2022-09-13T15:14:34.939Z,95725.69
2022-09-13T15:17:14.182Z,95731.13
2022-09-13T15:19:50.453Z,95726.25
2022-09-13T15:22:26.434Z,95720.84
2022-09-13T15:24:55.521Z,95727.91
2022-09-13T15:27:24.188Z,95727.56
2022-09-13T15:29:53.555Z,95726.06
2022-09-13T15:32:28.982Z,95724.94
2022-09-13T15:34:58.065Z,95720.28
2022-09-13T15:37:34.789Z,95716.66
2022-09-13T15:40:15.486Z,95717.41
2022-09-13T15:42:49.297Z,95719.88
2022-09-13T15:45:17.341Z,95721.44
2022-09-13T15:47:49.097Z,95729.13
2022-09-13T15:50:29.144Z,95723.97
2022-09-13T15:52:56.036Z,95725.03
2022-09-13T15:55:23.209Z,95724.31
2022-09-13T15:57:50.217Z,95719.63
2022-09-13T16:00:20.643Z,95724.72
2022-09-13T16:02:47.520Z,95724.56
2022-09-13T16:05:14.391Z,95720.38
2022-09-13T16:07:42.366Z,95713.50
2022-09-13T16:10:28.260Z,95717.66
2022-09-13T16:12:55.221Z,95720.59
2022-09-13T16:15:22.003Z,95712.97
2022-09-13T16:17:48.685Z,95712.91
2022-09-13T16:20:16.142Z,95713.03
2022-09-13T16:22:43.546Z,95711.00
2022-09-13T16:25:13.298Z,95721.13
2022-09-13T16:27:42.036Z,95723.66
2022-09-13T16:30:12.049Z,95716.03
2022-09-13T16:32:38.749Z,95719.94
2022-09-13T16:35:05.771Z,95724.50
2022-09-13T16:37:32.422Z,95725.84
2022-09-13T16:39:59.186Z,95722.06
2022-09-13T16:42:25.968Z,95715.03
2022-09-13T16:44:52.760Z,95711.72
2022-09-13T16:47:19.612Z,95708.94
2022-09-13T16:49:46.299Z,95707.88
2022-09-13T16:52:13.037Z,95713.09
2022-09-13T16:54:39.760Z,95714.41
2022-09-13T16:57:07.367Z,95709.81
2022-09-13T16:59:34.307Z,95708.88
2022-09-13T17:02:01.422Z,95711.25
2022-09-13T17:04:28.182Z,95710.44
2022-09-13T17:06:54.789Z,95708.41
2022-09-13T17:09:23.781Z,95708.34
2022-09-13T17:11:51.019Z,95702.34
2022-09-13T17:14:17.987Z,95709.78
2022-09-13T17:16:49.555Z,95709.06
2022-09-13T17:19:19.928Z,95704.38
2022-09-13T17:21:47.943Z,95702.84
2022-09-13T17:24:15.129Z,95688.44
2022-09-13T17:26:43.217Z,95694.56
2022-09-13T17:29:12.514Z,95700.53
2022-09-13T17:31:39.783Z,95714.13
2022-09-13T17:34:06.561Z,95713.44
2022-09-13T17:36:33.195Z,95720.81
2022-09-13T17:38:59.995Z,95720.69
2022-09-13T17:41:26.911Z,95717.28
2022-09-13T17:43:54.418Z,95726.28
2022-09-13T17:46:23.460Z,95724.31
2022-09-13T17:48:52.241Z,95721.84
2022-09-13T17:51:21.407Z,95730.63
2022-09-13T17:53:55.030Z,95729.19
2022-09-13T17:56:29.676Z,95729.44
2022-09-13T17:59:17.796Z,95732.38
2022-09-13T18:01:47.481Z,95737.25
2022-09-13T18:04:16.025Z,95730.91
2022-09-13T18:06:46.127Z,95732.66
2022-09-13T18:09:14.856Z,95738.53
2022-09-13T18:11:42.000Z,95738.97
2022-09-13T18:14:17.294Z,95733.56
2022-09-13T18:16:44.900Z,95740.28
2022-09-13T18:19:12.272Z,95739.09
2022-09-13T18:21:38.964Z,95744.47
2022-09-13T18:24:06.925Z,95743.41
2022-09-13T18:26:33.751Z,95747.59
2022-09-13T18:29:03.836Z,95743.88
2022-09-13T18:31:32.409Z,95743.25
2022-09-13T18:34:02.648Z,95741.03
2022-09-13T18:36:30.927Z,95746.41
2022-09-13T18:38:57.801Z,95756.16
2022-09-13T18:41:27.089Z,95748.31
2022-09-13T18:43:55.995Z,95749.34
2022-09-13T18:46:25.883Z,95747.94
2022-09-13T18:48:54.847Z,95740.88
2022-09-13T18:51:24.639Z,95750.84
2022-09-13T18:53:52.248Z,95738.44
2022-09-13T18:56:21.218Z,95739.47
2022-09-13T18:58:48.076Z,95740.88
2022-09-13T19:01:23.508Z,95742.78
2022-09-13T19:03:56.311Z,95739.25
2022-09-13T19:06:41.556Z,95738.44
2022-09-13T19:09:08.750Z,95735.16
2022-09-13T19:11:46.830Z,95724.00
2022-09-13T19:14:21.707Z,95736.28
2022-09-13T19:16:48.900Z,95734.41
2022-09-13T19:19:15.736Z,95737.94
2022-09-13T19:21:43.018Z,95738.75
2022-09-13T19:24:17.780Z,95741.66
2022-09-13T19:26:46.128Z,95740.03
2022-09-13T19:29:15.252Z,95734.03
2022-09-13T19:31:44.682Z,95728.44
2022-09-13T19:34:12.294Z,95734.03
2022-09-13T19:36:39.818Z,95736.94
2022-09-13T19:39:07.595Z,95739.63
2022-09-13T19:41:35.183Z,95741.72
2022-09-13T19:44:02.577Z,95742.72
2022-09-13T19:46:32.552Z,95742.34
2022-09-13T19:49:00.997Z,95736.56
2022-09-13T19:51:36.505Z,95735.38
2022-09-13T19:54:04.515Z,95731.03
2022-09-13T19:56:34.425Z,95730.22
2022-09-13T19:59:01.931Z,95728.34
2022-09-13T20:01:31.772Z,95718.81
2022-09-13T20:04:01.358Z,95721.19
2022-09-13T20:06:33.705Z,95718.09
2022-09-13T20:09:01.742Z,95719.94
2022-09-13T20:11:29.197Z,95723.09
2022-09-13T20:13:59.234Z,95722.53
2022-09-13T20:16:29.265Z,95718.19
2022-09-13T20:18:59.601Z,95720.97
2022-09-13T20:21:28.363Z,95719.91
2022-09-13T20:23:59.052Z,95719.69
2022-09-13T20:26:26.577Z,95718.34
2022-09-13T20:29:00.979Z,95708.84
2022-09-13T20:31:29.319Z,95707.19
2022-09-13T20:33:57.316Z,95702.50
2022-09-13T20:36:25.255Z,95707.94
2022-09-13T20:38:52.957Z,95706.97
2022-09-13T20:41:20.918Z,95704.94
2022-09-13T20:43:51.476Z,95702.56
2022-09-13T20:46:19.894Z,95705.91
2022-09-13T20:48:46.782Z,95706.56
2022-09-13T20:51:16.544Z,95701.88
2022-09-13T20:53:43.773Z,95708.53
2022-09-13T20:56:15.998Z,95715.78
2022-09-13T20:58:44.603Z,95707.09
2022-09-13T21:01:22.917Z,95707.53
2022-09-13T21:03:51.947Z,95705.31
2022-09-13T21:06:20.293Z,95702.00
2022-09-13T21:08:50.287Z,95694.38
2022-09-13T21:11:25.758Z,95691.69
2022-09-13T21:13:54.901Z,95701.03
2022-09-13T21:16:24.395Z,95695.88
2022-09-13T21:18:52.468Z,95690.50
2022-09-13T21:21:24.081Z,95689.25
2022-09-13T21:23:51.020Z,95687.00
2022-09-13T21:26:20.454Z,95690.13
2022-09-13T21:28:47.553Z,95684.97
2022-09-13T21:31:21.372Z,95675.25
2022-09-13T21:33:49.536Z,95680.84
2022-09-13T21:36:16.210Z,95681.09
2022-09-13T21:38:42.864Z,95676.75
2022-09-13T21:41:15.164Z,95678.16
2022-09-13T21:43:42.631Z,95676.75
2022-09-13T21:46:16.626Z,95680.47
2022-09-13T21:48:48.222Z,95669.94
2022-09-13T21:51:24.052Z,95672.44
2022-09-13T21:53:57.600Z,95667.53
2022-09-13T21:56:26.747Z,95676.63
2022-09-13T21:59:00.697Z,95675.00
2022-09-13T22:01:30.382Z,95663.41
2022-09-13T22:03:57.924Z,95659.28
2022-09-13T22:06:25.155Z,95656.00
2022-09-13T22:08:54.598Z,95662.44
2022-09-13T22:11:21.252Z,95663.47
2022-09-13T22:13:48.853Z,95658.94
2022-09-13T22:16:19.696Z,95657.28
2022-09-13T22:18:48.472Z,95654.81
2022-09-13T22:21:22.470Z,95653.16
2022-09-13T22:23:49.462Z,95651.50
2022-09-13T22:26:22.186Z,95645.53
2022-09-13T22:28:48.969Z,95642.69
2022-09-13T22:31:19.322Z,95642.34
2022-09-13T22:33:46.924Z,95641.75
2022-09-13T22:36:15.599Z,95637.41
2022-09-13T22:38:44.195Z,95638.44
2022-09-13T22:41:13.144Z,95633.28
2022-09-13T22:43:40.595Z,95635.00
2022-09-13T22:46:13.171Z,95638.50
2022-09-13T22:48:41.166Z,95633.13
2022-09-13T22:51:10.006Z,95629.63
2022-09-13T22:53:38.645Z,95624.47
2022-09-13T22:56:16.779Z,95623.03
2022-09-13T22:58:44.245Z,95626.53
2022-09-13T23:01:14.740Z,95631.09
2022-09-13T23:03:43.305Z,95624.06
2022-09-13T23:06:11.900Z,95625.09
2022-09-13T23:08:39.803Z,95625.31
2022-09-13T23:11:19.224Z,95628.00
2022-09-13T23:13:47.919Z,95624.53
2022-09-13T23:16:20.150Z,95625.31
2022-09-13T23:18:46.910Z,95616.69
2022-09-13T23:21:13.984Z,95616.28
2022-09-13T23:23:40.638Z,95609.25
2022-09-13T23:26:10.646Z,95615.25
2022-09-13T23:28:39.369Z,95611.94
2022-09-13T23:31:12.654Z,95608.22
2022-09-13T23:33:45.044Z,95598.50
2022-09-13T23:36:13.605Z,95590.44
2022-09-13T23:38:41.534Z,95599.75
2022-09-13T23:41:08.323Z,95596.50
2022-09-13T23:43:34.972Z,95587.00
2022-09-13T23:46:01.768Z,95586.38
2022-09-13T23:48:28.698Z,95588.25
2022-09-13T23:51:03.781Z,95579.22
2022-09-13T23:53:31.167Z,95593.69
2022-09-13T23:55:58.021Z,95591.63
2022-09-13T23:58:25.239Z,95588.31
